sensor_id;sensor_type;location;lat;lon;timestamp;temperature;humidity
20650;DHT22;10484;48.736;9.332;2023-07-24T00:01:11;21.20;1.00
20650;DHT22;10484;48.736;9.332;2023-07-24T00:03:37;21.20;1.00
20650;DHT22;10484;48.736;9.332;2023-07-24T00:06:03;21.20;1.00
20650;DHT22;10484;48.736;9.332;2023-07-24T00:08:28;21.20;1.00
20650;DHT22;10484;48.736;9.332;2023-07-24T00:10:54;21.20;1.00
20650;DHT22;10484;48.736;9.332;2023-07-24T00:13:20;21.10;1.00
20650;DHT22;10484;48.736;9.332;2023-07-24T00:15:45;21.10;1.00
20650;DHT22;10484;48.736;9.332;2023-07-24T00:18:11;21.20;1.00
20650;DHT22;10484;48.736;9.332;2023-07-24T00:20:36;21.20;1.00
20650;DHT22;10484;48.736;9.332;2023-07-24T00:23:02;21.20;1.00
20650;DHT22;10484;48.736;9.332;2023-07-24T00:25:27;21.20;1.00
20650;DHT22;10484;48.736;9.332;2023-07-24T00:27:53;21.20;1.00
20650;DHT22;10484;48.736;9.332;2023-07-24T00:30:19;21.20;1.00
20650;DHT22;10484;48.736;9.332;2023-07-24T00:32:44;21.20;1.00
20650;DHT22;10484;48.736;9.332;2023-07-24T00:35:10;21.10;1.00
20650;DHT22;10484;48.736;9.332;2023-07-24T00:37:35;21.10;1.00
20650;DHT22;10484;48.736;9.332;2023-07-24T00:40:02;21.10;1.00
20650;DHT22;10484;48.736;9.332;2023-07-24T00:42:28;21.10;1.00
20650;DHT22;10484;48.736;9.332;2023-07-24T00:44:53;21.10;1.00
20650;DHT22;10484;48.736;9.332;2023-07-24T00:47:19;21.00;1.00
20650;DHT22;10484;48.736;9.332;2023-07-24T00:49:45;21.00;1.00
20650;DHT22;10484;48.736;9.332;2023-07-24T00:52:11;21.00;1.00
20650;DHT22;10484;48.736;9.332;2023-07-24T00:54:38;21.00;1.00
20650;DHT22;10484;48.736;9.332;2023-07-24T00:57:04;21.00;1.00
20650;DHT22;10484;48.736;9.332;2023-07-24T00:59:31;21.00;1.00
20650;DHT22;10484;48.736;9.332;2023-07-24T01:01:57;21.00;1.00
20650;DHT22;10484;48.736;9.332;2023-07-24T01:04:23;20.90;1.00
20650;DHT22;10484;48.736;9.332;2023-07-24T01:06:49;20.90;1.00
20650;DHT22;10484;48.736;9.332;2023-07-24T01:09:14;20.90;1.00
20650;DHT22;10484;48.736;9.332;2023-07-24T01:11:50;20.90;1.00
20650;DHT22;10484;48.736;9.332;2023-07-24T01:14:26;20.80;1.00
20650;DHT22;10484;48.736;9.332;2023-07-24T01:16:55;20.80;1.00
20650;DHT22;10484;48.736;9.332;2023-07-24T01:27:34;20.70;1.00
20650;DHT22;10484;48.736;9.332;2023-07-24T01:30:00;20.60;1.00
20650;DHT22;10484;48.736;9.332;2023-07-24T01:32:26;20.60;1.00
20650;DHT22;10484;48.736;9.332;2023-07-24T01:34:52;20.60;1.00
20650;DHT22;10484;48.736;9.332;2023-07-24T01:37:19;20.60;1.00
20650;DHT22;10484;48.736;9.332;2023-07-24T01:39:46;20.50;1.00
20650;DHT22;10484;48.736;9.332;2023-07-24T01:42:12;20.60;1.00
20650;DHT22;10484;48.736;9.332;2023-07-24T01:44:38;20.60;1.00
20650;DHT22;10484;48.736;9.332;2023-07-24T01:47:04;20.60;1.00
20650;DHT22;10484;48.736;9.332;2023-07-24T01:49:29;20.60;1.00
20650;DHT22;10484;48.736;9.332;2023-07-24T01:51:55;20.60;1.00
20650;DHT22;10484;48.736;9.332;2023-07-24T01:54:22;20.50;1.00
20650;DHT22;10484;48.736;9.332;2023-07-24T01:56:47;20.50;1.00
20650;DHT22;10484;48.736;9.332;2023-07-24T01:59:13;20.50;1.00
20650;DHT22;10484;48.736;9.332;2023-07-24T02:01:38;20.40;1.00
20650;DHT22;10484;48.736;9.332;2023-07-24T02:04:04;20.40;1.00
20650;DHT22;10484;48.736;9.332;2023-07-24T02:06:29;20.30;1.00
20650;DHT22;10484;48.736;9.332;2023-07-24T02:08:55;20.30;1.00
20650;DHT22;10484;48.736;9.332;2023-07-24T02:11:20;20.30;1.00
20650;DHT22;10484;48.736;9.332;2023-07-24T02:13:46;20.30;1.00
20650;DHT22;10484;48.736;9.332;2023-07-24T02:16:13;20.30;1.00
20650;DHT22;10484;48.736;9.332;2023-07-24T02:18:40;20.30;1.00
20650;DHT22;10484;48.736;9.332;2023-07-24T02:21:06;20.30;1.00
20650;DHT22;10484;48.736;9.332;2023-07-24T02:23:32;20.20;1.00
20650;DHT22;10484;48.736;9.332;2023-07-24T02:25:57;20.20;1.00
20650;DHT22;10484;48.736;9.332;2023-07-24T02:28:23;20.20;1.00
20650;DHT22;10484;48.736;9.332;2023-07-24T02:30:49;20.10;1.00
20650;DHT22;10484;48.736;9.332;2023-07-24T02:33:16;20.10;1.00
20650;DHT22;10484;48.736;9.332;2023-07-24T02:35:42;20.10;1.00
20650;DHT22;10484;48.736;9.332;2023-07-24T02:38:08;20.10;1.00
20650;DHT22;10484;48.736;9.332;2023-07-24T02:40:34;20.00;1.00
20650;DHT22;10484;48.736;9.332;2023-07-24T02:43:00;20.00;1.00
20650;DHT22;10484;48.736;9.332;2023-07-24T02:45:26;20.00;1.00
20650;DHT22;10484;48.736;9.332;2023-07-24T02:47:52;19.90;1.00
20650;DHT22;10484;48.736;9.332;2023-07-24T02:50:17;19.90;1.00
20650;DHT22;10484;48.736;9.332;2023-07-24T02:52:43;19.90;1.00
20650;DHT22;10484;48.736;9.332;2023-07-24T02:55:08;19.80;1.00
20650;DHT22;10484;48.736;9.332;2023-07-24T02:57:34;19.80;1.00
20650;DHT22;10484;48.736;9.332;2023-07-24T03:00:00;19.70;1.00
20650;DHT22;10484;48.736;9.332;2023-07-24T03:02:25;19.70;1.00
20650;DHT22;10484;48.736;9.332;2023-07-24T03:04:51;19.60;1.00
20650;DHT22;10484;48.736;9.332;2023-07-24T03:07:16;19.60;1.00
20650;DHT22;10484;48.736;9.332;2023-07-24T03:09:42;19.60;1.00
20650;DHT22;10484;48.736;9.332;2023-07-24T03:12:08;19.60;1.00
20650;DHT22;10484;48.736;9.332;2023-07-24T03:14:33;19.50;1.00
20650;DHT22;10484;48.736;9.332;2023-07-24T03:16:59;19.50;1.00
20650;DHT22;10484;48.736;9.332;2023-07-24T03:19:24;19.50;1.00
20650;DHT22;10484;48.736;9.332;2023-07-24T03:21:50;19.40;1.00
20650;DHT22;10484;48.736;9.332;2023-07-24T03:24:16;19.40;1.00
20650;DHT22;10484;48.736;9.332;2023-07-24T03:26:42;19.40;1.00
20650;DHT22;10484;48.736;9.332;2023-07-24T03:29:08;19.30;1.00
20650;DHT22;10484;48.736;9.332;2023-07-24T03:31:33;19.30;1.00
20650;DHT22;10484;48.736;9.332;2023-07-24T03:33:59;19.30;1.00
20650;DHT22;10484;48.736;9.332;2023-07-24T03:36:24;19.20;1.00
20650;DHT22;10484;48.736;9.332;2023-07-24T03:38:50;19.20;1.00
20650;DHT22;10484;48.736;9.332;2023-07-24T03:41:15;19.10;1.00
20650;DHT22;10484;48.736;9.332;2023-07-24T03:43:41;19.10;1.00
20650;DHT22;10484;48.736;9.332;2023-07-24T03:46:07;19.10;1.00
20650;DHT22;10484;48.736;9.332;2023-07-24T03:48:32;19.00;1.00
20650;DHT22;10484;48.736;9.332;2023-07-24T03:50:59;19.00;1.00
20650;DHT22;10484;48.736;9.332;2023-07-24T03:53:25;19.00;1.00
20650;DHT22;10484;48.736;9.332;2023-07-24T03:55:51;18.90;1.00
20650;DHT22;10484;48.736;9.332;2023-07-24T03:58:17;18.90;1.00
20650;DHT22;10484;48.736;9.332;2023-07-24T04:00:42;18.90;1.00
20650;DHT22;10484;48.736;9.332;2023-07-24T04:03:08;18.90;1.00
20650;DHT22;10484;48.736;9.332;2023-07-24T04:05:34;18.90;1.00
20650;DHT22;10484;48.736;9.332;2023-07-24T04:08:00;18.80;1.00
20650;DHT22;10484;48.736;9.332;2023-07-24T04:10:26;18.80;1.00
20650;DHT22;10484;48.736;9.332;2023-07-24T04:12:51;18.80;1.00
20650;DHT22;10484;48.736;9.332;2023-07-24T04:15:17;18.80;1.00
20650;DHT22;10484;48.736;9.332;2023-07-24T04:17:43;18.80;1.00
20650;DHT22;10484;48.736;9.332;2023-07-24T04:20:09;18.80;1.00
20650;DHT22;10484;48.736;9.332;2023-07-24T04:22:34;18.80;1.00
20650;DHT22;10484;48.736;9.332;2023-07-24T04:25:00;18.80;1.00
20650;DHT22;10484;48.736;9.332;2023-07-24T04:27:25;18.80;1.00
20650;DHT22;10484;48.736;9.332;2023-07-24T04:29:51;18.80;1.00
20650;DHT22;10484;48.736;9.332;2023-07-24T04:32:17;18.80;1.00
20650;DHT22;10484;48.736;9.332;2023-07-24T04:34:42;18.80;1.00
20650;DHT22;10484;48.736;9.332;2023-07-24T04:37:08;18.80;1.00
20650;DHT22;10484;48.736;9.332;2023-07-24T04:39:33;18.80;1.00
20650;DHT22;10484;48.736;9.332;2023-07-24T04:41:59;18.80;1.00
20650;DHT22;10484;48.736;9.332;2023-07-24T04:44:25;18.80;1.00
20650;DHT22;10484;48.736;9.332;2023-07-24T04:46:50;18.80;1.00
20650;DHT22;10484;48.736;9.332;2023-07-24T04:49:16;18.80;1.00
20650;DHT22;10484;48.736;9.332;2023-07-24T04:51:42;18.80;1.00
20650;DHT22;10484;48.736;9.332;2023-07-24T04:54:07;18.80;1.00
20650;DHT22;10484;48.736;9.332;2023-07-24T04:56:33;18.80;1.00
20650;DHT22;10484;48.736;9.332;2023-07-24T04:58:59;18.80;1.00
20650;DHT22;10484;48.736;9.332;2023-07-24T05:01:24;18.80;1.00
20650;DHT22;10484;48.736;9.332;2023-07-24T05:03:50;18.80;1.00
20650;DHT22;10484;48.736;9.332;2023-07-24T05:06:15;18.80;1.00
20650;DHT22;10484;48.736;9.332;2023-07-24T05:08:41;18.80;1.00
20650;DHT22;10484;48.736;9.332;2023-07-24T05:11:06;18.80;1.00
20650;DHT22;10484;48.736;9.332;2023-07-24T05:13:32;18.80;1.00
20650;DHT22;10484;48.736;9.332;2023-07-24T05:15:57;18.80;1.00
20650;DHT22;10484;48.736;9.332;2023-07-24T05:18:23;18.80;1.00
20650;DHT22;10484;48.736;9.332;2023-07-24T05:20:49;18.90;1.00
20650;DHT22;10484;48.736;9.332;2023-07-24T05:23:16;18.90;1.00
20650;DHT22;10484;48.736;9.332;2023-07-24T05:25:42;18.90;1.00
20650;DHT22;10484;48.736;9.332;2023-07-24T05:28:08;18.90;1.00
20650;DHT22;10484;48.736;9.332;2023-07-24T05:30:34;19.00;1.00
20650;DHT22;10484;48.736;9.332;2023-07-24T05:33:00;19.00;1.00
20650;DHT22;10484;48.736;9.332;2023-07-24T05:35:25;19.00;1.00
20650;DHT22;10484;48.736;9.332;2023-07-24T05:37:51;19.10;1.00
20650;DHT22;10484;48.736;9.332;2023-07-24T05:40:17;19.10;1.00
20650;DHT22;10484;48.736;9.332;2023-07-24T05:42:42;19.10;1.00
20650;DHT22;10484;48.736;9.332;2023-07-24T05:45:09;19.20;1.00
20650;DHT22;10484;48.736;9.332;2023-07-24T05:47:36;19.20;1.00
20650;DHT22;10484;48.736;9.332;2023-07-24T05:50:02;19.20;1.00
20650;DHT22;10484;48.736;9.332;2023-07-24T05:52:28;19.20;1.00
20650;DHT22;10484;48.736;9.332;2023-07-24T05:54:54;19.20;1.00
20650;DHT22;10484;48.736;9.332;2023-07-24T05:57:19;19.20;1.00
20650;DHT22;10484;48.736;9.332;2023-07-24T05:59:45;19.20;1.00
20650;DHT22;10484;48.736;9.332;2023-07-24T06:02:11;19.20;1.00
20650;DHT22;10484;48.736;9.332;2023-07-24T06:04:36;19.20;1.00
20650;DHT22;10484;48.736;9.332;2023-07-24T06:07:02;19.20;1.00
20650;DHT22;10484;48.736;9.332;2023-07-24T06:09:28;19.20;1.00
20650;DHT22;10484;48.736;9.332;2023-07-24T06:11:53;19.20;1.00
20650;DHT22;10484;48.736;9.332;2023-07-24T06:14:19;19.20;1.00
20650;DHT22;10484;48.736;9.332;2023-07-24T06:16:45;19.20;1.00
20650;DHT22;10484;48.736;9.332;2023-07-24T06:19:10;19.20;1.00
20650;DHT22;10484;48.736;9.332;2023-07-24T06:21:36;19.20;1.00
20650;DHT22;10484;48.736;9.332;2023-07-24T06:24:01;19.20;1.00
20650;DHT22;10484;48.736;9.332;2023-07-24T06:26:27;19.20;1.00
20650;DHT22;10484;48.736;9.332;2023-07-24T06:28:53;19.20;1.00
20650;DHT22;10484;48.736;9.332;2023-07-24T06:31:18;19.20;1.00
20650;DHT22;10484;48.736;9.332;2023-07-24T06:33:44;19.20;1.00
20650;DHT22;10484;48.736;9.332;2023-07-24T06:36:10;19.20;1.00
20650;DHT22;10484;48.736;9.332;2023-07-24T06:38:36;19.20;1.00
20650;DHT22;10484;48.736;9.332;2023-07-24T06:41:02;19.30;1.00
20650;DHT22;10484;48.736;9.332;2023-07-24T06:43:28;19.30;1.00
20650;DHT22;10484;48.736;9.332;2023-07-24T06:45:54;19.30;1.00
20650;DHT22;10484;48.736;9.332;2023-07-24T06:48:19;19.30;1.00
20650;DHT22;10484;48.736;9.332;2023-07-24T06:50:45;19.30;1.00
20650;DHT22;10484;48.736;9.332;2023-07-24T06:53:10;19.30;1.00
20650;DHT22;10484;48.736;9.332;2023-07-24T06:55:36;19.40;1.00
20650;DHT22;10484;48.736;9.332;2023-07-24T06:58:02;19.40;1.00
20650;DHT22;10484;48.736;9.332;2023-07-24T07:00:27;19.40;1.00
20650;DHT22;10484;48.736;9.332;2023-07-24T07:02:53;19.40;1.00
20650;DHT22;10484;48.736;9.332;2023-07-24T07:05:18;19.40;1.00
20650;DHT22;10484;48.736;9.332;2023-07-24T07:07:44;19.50;1.00
20650;DHT22;10484;48.736;9.332;2023-07-24T07:10:10;19.50;1.00
20650;DHT22;10484;48.736;9.332;2023-07-24T07:12:35;19.50;1.00
20650;DHT22;10484;48.736;9.332;2023-07-24T07:15:01;19.50;1.00
20650;DHT22;10484;48.736;9.332;2023-07-24T07:17:26;19.50;1.00
20650;DHT22;10484;48.736;9.332;2023-07-24T07:19:52;19.50;1.00
20650;DHT22;10484;48.736;9.332;2023-07-24T07:22:18;19.60;1.00
20650;DHT22;10484;48.736;9.332;2023-07-24T07:24:43;19.60;1.00
20650;DHT22;10484;48.736;9.332;2023-07-24T07:27:09;19.60;1.00
20650;DHT22;10484;48.736;9.332;2023-07-24T07:29:35;19.60;1.00
20650;DHT22;10484;48.736;9.332;2023-07-24T07:32:00;19.60;1.00
20650;DHT22;10484;48.736;9.332;2023-07-24T07:34:26;19.70;1.00
20650;DHT22;10484;48.736;9.332;2023-07-24T07:36:52;19.70;1.00
20650;DHT22;10484;48.736;9.332;2023-07-24T07:39:17;19.70;1.00
20650;DHT22;10484;48.736;9.332;2023-07-24T07:41:43;19.70;1.00
20650;DHT22;10484;48.736;9.332;2023-07-24T07:44:08;19.70;1.00
20650;DHT22;10484;48.736;9.332;2023-07-24T07:46:34;19.80;1.00
20650;DHT22;10484;48.736;9.332;2023-07-24T07:48:59;19.80;1.00
20650;DHT22;10484;48.736;9.332;2023-07-24T07:51:25;19.80;1.00
20650;DHT22;10484;48.736;9.332;2023-07-24T07:53:51;19.80;1.00
20650;DHT22;10484;48.736;9.332;2023-07-24T07:56:17;19.90;1.00
20650;DHT22;10484;48.736;9.332;2023-07-24T07:58:42;19.90;1.00
20650;DHT22;10484;48.736;9.332;2023-07-24T08:01:08;19.90;1.00
20650;DHT22;10484;48.736;9.332;2023-07-24T08:03:33;20.00;1.00
20650;DHT22;10484;48.736;9.332;2023-07-24T08:05:59;20.00;1.00
20650;DHT22;10484;48.736;9.332;2023-07-24T08:08:25;20.10;1.00
20650;DHT22;10484;48.736;9.332;2023-07-24T08:10:51;20.10;1.00
20650;DHT22;10484;48.736;9.332;2023-07-24T08:13:17;20.20;1.00
20650;DHT22;10484;48.736;9.332;2023-07-24T08:15:42;20.20;1.00
20650;DHT22;10484;48.736;9.332;2023-07-24T08:18:08;20.20;1.00
20650;DHT22;10484;48.736;9.332;2023-07-24T08:20:37;20.20;1.00
20650;DHT22;10484;48.736;9.332;2023-07-24T08:23:04;20.20;1.00
20650;DHT22;10484;48.736;9.332;2023-07-24T08:25:29;20.20;1.00
20650;DHT22;10484;48.736;9.332;2023-07-24T08:27:55;20.20;1.00
20650;DHT22;10484;48.736;9.332;2023-07-24T08:30:21;20.20;1.00
20650;DHT22;10484;48.736;9.332;2023-07-24T08:32:46;20.20;1.00
20650;DHT22;10484;48.736;9.332;2023-07-24T08:35:12;20.20;1.00
20650;DHT22;10484;48.736;9.332;2023-07-24T08:37:38;20.20;1.00
20650;DHT22;10484;48.736;9.332;2023-07-24T08:40:04;20.20;1.00
20650;DHT22;10484;48.736;9.332;2023-07-24T08:42:31;20.20;1.00
20650;DHT22;10484;48.736;9.332;2023-07-24T08:44:58;20.20;1.00
20650;DHT22;10484;48.736;9.332;2023-07-24T08:47:24;20.20;1.00
20650;DHT22;10484;48.736;9.332;2023-07-24T08:49:50;20.20;1.00
20650;DHT22;10484;48.736;9.332;2023-07-24T08:52:17;20.20;1.00
20650;DHT22;10484;48.736;9.332;2023-07-24T08:54:44;20.20;1.00
20650;DHT22;10484;48.736;9.332;2023-07-24T08:57:11;20.20;1.00
20650;DHT22;10484;48.736;9.332;2023-07-24T08:59:37;20.30;1.00
20650;DHT22;10484;48.736;9.332;2023-07-24T09:02:03;20.30;1.00
20650;DHT22;10484;48.736;9.332;2023-07-24T09:04:29;20.30;1.00
20650;DHT22;10484;48.736;9.332;2023-07-24T09:06:56;20.30;1.00
20650;DHT22;10484;48.736;9.332;2023-07-24T09:09:22;20.30;1.00
20650;DHT22;10484;48.736;9.332;2023-07-24T09:11:52;20.30;3.10
20650;DHT22;10484;48.736;9.332;2023-07-24T09:16:47;20.30;5.90
20650;DHT22;10484;48.736;9.332;2023-07-24T09:19:19;20.40;4.30
20650;DHT22;10484;48.736;9.332;2023-07-24T09:21:45;20.40;2.50
20650;DHT22;10484;48.736;9.332;2023-07-24T09:24:12;20.40;1.10
20650;DHT22;10484;48.736;9.332;2023-07-24T09:26:51;20.40;1.00
20650;DHT22;10484;48.736;9.332;2023-07-24T09:29:17;20.40;1.00
20650;DHT22;10484;48.736;9.332;2023-07-24T09:31:44;20.50;1.00
20650;DHT22;10484;48.736;9.332;2023-07-24T09:34:18;20.50;1.00
20650;DHT22;10484;48.736;9.332;2023-07-24T09:36:44;20.50;1.00
20650;DHT22;10484;48.736;9.332;2023-07-24T09:39:10;20.50;1.00
20650;DHT22;10484;48.736;9.332;2023-07-24T09:41:40;20.50;1.00
20650;DHT22;10484;48.736;9.332;2023-07-24T09:44:06;20.60;1.00
20650;DHT22;10484;48.736;9.332;2023-07-24T09:46:32;20.60;1.00
20650;DHT22;10484;48.736;9.332;2023-07-24T09:48:58;20.60;1.00
20650;DHT22;10484;48.736;9.332;2023-07-24T09:51:24;20.60;1.00
20650;DHT22;10484;48.736;9.332;2023-07-24T09:53:56;20.60;1.00
20650;DHT22;10484;48.736;9.332;2023-07-24T09:56:24;20.60;1.00
20650;DHT22;10484;48.736;9.332;2023-07-24T09:58:51;20.60;1.00
20650;DHT22;10484;48.736;9.332;2023-07-24T10:01:21;20.70;2.60
20650;DHT22;10484;48.736;9.332;2023-07-24T10:03:48;20.60;2.50
20650;DHT22;10484;48.736;9.332;2023-07-24T10:06:18;20.70;3.30
20650;DHT22;10484;48.736;9.332;2023-07-24T10:08:44;20.60;5.00
20650;DHT22;10484;48.736;9.332;2023-07-24T10:11:12;20.60;7.50
20650;DHT22;10484;48.736;9.332;2023-07-24T10:13:38;20.60;8.80
20650;DHT22;10484;48.736;9.332;2023-07-24T10:16:04;20.60;10.00
20650;DHT22;10484;48.736;9.332;2023-07-24T10:18:41;20.60;10.10
20650;DHT22;10484;48.736;9.332;2023-07-24T10:21:10;20.60;11.50
20650;DHT22;10484;48.736;9.332;2023-07-24T10:23:37;20.60;12.70
20650;DHT22;10484;48.736;9.332;2023-07-24T10:26:04;20.60;14.70
20650;DHT22;10484;48.736;9.332;2023-07-24T10:28:40;20.60;15.90
20650;DHT22;10484;48.736;9.332;2023-07-24T10:31:08;20.50;17.20
20650;DHT22;10484;48.736;9.332;2023-07-24T10:33:46;20.50;19.20
20650;DHT22;10484;48.736;9.332;2023-07-24T10:36:17;20.50;20.30
20650;DHT22;10484;48.736;9.332;2023-07-24T10:38:44;20.50;20.80
20650;DHT22;10484;48.736;9.332;2023-07-24T10:41:10;20.50;20.90
20650;DHT22;10484;48.736;9.332;2023-07-24T10:43:50;20.50;22.60
20650;DHT22;10484;48.736;9.332;2023-07-24T10:46:17;20.40;22.70
20650;DHT22;10484;48.736;9.332;2023-07-24T10:48:46;20.40;22.90
20650;DHT22;10484;48.736;9.332;2023-07-24T10:51:12;20.40;23.90
20650;DHT22;10484;48.736;9.332;2023-07-24T10:53:45;20.40;25.70
20650;DHT22;10484;48.736;9.332;2023-07-24T10:56:11;20.40;27.00
20650;DHT22;10484;48.736;9.332;2023-07-24T10:58:37;20.40;28.20
20650;DHT22;10484;48.736;9.332;2023-07-24T11:01:04;20.40;32.00
20650;DHT22;10484;48.736;9.332;2023-07-24T11:03:31;20.40;33.20
20650;DHT22;10484;48.736;9.332;2023-07-24T11:05:57;20.40;33.60
20650;DHT22;10484;48.736;9.332;2023-07-24T11:08:23;20.40;29.60
20650;DHT22;10484;48.736;9.332;2023-07-24T11:10:53;20.40;28.80
20650;DHT22;10484;48.736;9.332;2023-07-24T11:13:21;20.40;28.60
20650;DHT22;10484;48.736;9.332;2023-07-24T11:15:48;20.40;26.90
20650;DHT22;10484;48.736;9.332;2023-07-24T11:18:14;20.40;25.90
20650;DHT22;10484;48.736;9.332;2023-07-24T11:20:56;20.40;25.00
20650;DHT22;10484;48.736;9.332;2023-07-24T11:23:23;20.40;25.00
20650;DHT22;10484;48.736;9.332;2023-07-24T11:25:53;20.40;26.10
20650;DHT22;10484;48.736;9.332;2023-07-24T11:28:19;20.40;25.20
20650;DHT22;10484;48.736;9.332;2023-07-24T11:30:44;20.40;24.60
20650;DHT22;10484;48.736;9.332;2023-07-24T11:33:12;20.40;23.40
20650;DHT22;10484;48.736;9.332;2023-07-24T11:35:39;20.40;23.50
20650;DHT22;10484;48.736;9.332;2023-07-24T11:38:06;20.40;24.40
20650;DHT22;10484;48.736;9.332;2023-07-24T11:40:38;20.40;26.10
20650;DHT22;10484;48.736;9.332;2023-07-24T11:43:04;20.30;27.00
20650;DHT22;10484;48.736;9.332;2023-07-24T11:45:31;20.20;29.90
20650;DHT22;10484;48.736;9.332;2023-07-24T11:47:57;20.20;31.70
20650;DHT22;10484;48.736;9.332;2023-07-24T11:50:23;20.20;36.30
20650;DHT22;10484;48.736;9.332;2023-07-24T11:52:52;20.20;38.70
20650;DHT22;10484;48.736;9.332;2023-07-24T11:55:31;20.20;36.70
20650;DHT22;10484;48.736;9.332;2023-07-24T11:57:58;20.30;33.00
20650;DHT22;10484;48.736;9.332;2023-07-24T12:00:24;20.30;32.90
20650;DHT22;10484;48.736;9.332;2023-07-24T12:02:50;20.40;35.50
20650;DHT22;10484;48.736;9.332;2023-07-24T12:05:16;20.40;36.10
20650;DHT22;10484;48.736;9.332;2023-07-24T12:07:43;20.50;36.20
20650;DHT22;10484;48.736;9.332;2023-07-24T12:10:12;20.50;34.10
20650;DHT22;10484;48.736;9.332;2023-07-24T12:12:43;20.50;32.70
20650;DHT22;10484;48.736;9.332;2023-07-24T12:15:10;20.50;34.50
20650;DHT22;10484;48.736;9.332;2023-07-24T12:17:36;20.50;36.30
20650;DHT22;10484;48.736;9.332;2023-07-24T12:20:03;20.50;39.60
20650;DHT22;10484;48.736;9.332;2023-07-24T12:22:30;20.60;44.80
20650;DHT22;10484;48.736;9.332;2023-07-24T12:24:56;20.60;45.00
20650;DHT22;10484;48.736;9.332;2023-07-24T12:27:21;20.70;45.30
20650;DHT22;10484;48.736;9.332;2023-07-24T12:29:47;20.70;45.10
20650;DHT22;10484;48.736;9.332;2023-07-24T12:32:13;20.80;45.50
20650;DHT22;10484;48.736;9.332;2023-07-24T12:34:38;20.80;45.70
20650;DHT22;10484;48.736;9.332;2023-07-24T12:37:04;20.80;45.10
20650;DHT22;10484;48.736;9.332;2023-07-24T12:39:30;20.80;44.60
20650;DHT22;10484;48.736;9.332;2023-07-24T12:41:55;20.90;39.90
20650;DHT22;10484;48.736;9.332;2023-07-24T12:44:21;20.90;34.40
20650;DHT22;10484;48.736;9.332;2023-07-24T12:46:46;20.90;32.00
20650;DHT22;10484;48.736;9.332;2023-07-24T12:49:12;21.00;27.70
20650;DHT22;10484;48.736;9.332;2023-07-24T12:51:39;21.00;25.90
20650;DHT22;10484;48.736;9.332;2023-07-24T12:54:05;21.10;26.10
20650;DHT22;10484;48.736;9.332;2023-07-24T12:56:30;21.10;25.90
20650;DHT22;10484;48.736;9.332;2023-07-24T12:58:56;21.10;24.20
20650;DHT22;10484;48.736;9.332;2023-07-24T13:01:21;21.20;25.10
20650;DHT22;10484;48.736;9.332;2023-07-24T13:03:47;21.20;27.60
20650;DHT22;10484;48.736;9.332;2023-07-24T13:06:12;21.30;29.20
20650;DHT22;10484;48.736;9.332;2023-07-24T13:08:38;21.30;30.60
20650;DHT22;10484;48.736;9.332;2023-07-24T13:11:03;21.30;35.00
20650;DHT22;10484;48.736;9.332;2023-07-24T13:13:29;21.30;45.10
20650;DHT22;10484;48.736;9.332;2023-07-24T13:15:56;21.40;45.90
20650;DHT22;10484;48.736;9.332;2023-07-24T13:18:21;21.40;46.20
20650;DHT22;10484;48.736;9.332;2023-07-24T13:20:47;21.40;46.10
20650;DHT22;10484;48.736;9.332;2023-07-24T13:23:12;21.50;46.20
20650;DHT22;10484;48.736;9.332;2023-07-24T13:25:38;21.50;39.60
20650;DHT22;10484;48.736;9.332;2023-07-24T13:28:03;21.50;29.40
20650;DHT22;10484;48.736;9.332;2023-07-24T13:30:29;21.50;24.90
20650;DHT22;10484;48.736;9.332;2023-07-24T13:32:55;21.60;22.50
20650;DHT22;10484;48.736;9.332;2023-07-24T13:35:20;21.60;18.60
20650;DHT22;10484;48.736;9.332;2023-07-24T13:37:46;21.60;13.60
20650;DHT22;10484;48.736;9.332;2023-07-24T13:40:11;21.70;11.50
20650;DHT22;10484;48.736;9.332;2023-07-24T13:42:37;21.70;10.60
20650;DHT22;10484;48.736;9.332;2023-07-24T13:45:03;21.70;9.70
20650;DHT22;10484;48.736;9.332;2023-07-24T13:47:28;21.80;7.30
20650;DHT22;10484;48.736;9.332;2023-07-24T13:49:54;21.80;5.50
20650;DHT22;10484;48.736;9.332;2023-07-24T13:52:19;21.80;4.20
20650;DHT22;10484;48.736;9.332;2023-07-24T13:54:45;21.80;3.30
20650;DHT22;10484;48.736;9.332;2023-07-24T13:57:13;21.90;3.30
20650;DHT22;10484;48.736;9.332;2023-07-24T13:59:38;21.90;2.20
20650;DHT22;10484;48.736;9.332;2023-07-24T14:02:05;21.90;1.00
20650;DHT22;10484;48.736;9.332;2023-07-24T14:04:31;22.00;1.00
20650;DHT22;10484;48.736;9.332;2023-07-24T14:06:56;21.90;1.00
20650;DHT22;10484;48.736;9.332;2023-07-24T14:09:22;22.00;1.00
20650;DHT22;10484;48.736;9.332;2023-07-24T14:11:47;22.00;1.00
20650;DHT22;10484;48.736;9.332;2023-07-24T14:14:13;22.00;1.00
20650;DHT22;10484;48.736;9.332;2023-07-24T14:16:39;22.10;1.00
20650;DHT22;10484;48.736;9.332;2023-07-24T14:19:04;22.10;1.00
20650;DHT22;10484;48.736;9.332;2023-07-24T14:21:30;22.10;1.00
20650;DHT22;10484;48.736;9.332;2023-07-24T14:23:55;22.10;1.00
20650;DHT22;10484;48.736;9.332;2023-07-24T14:26:21;22.10;1.00
20650;DHT22;10484;48.736;9.332;2023-07-24T14:28:48;22.20;1.00
20650;DHT22;10484;48.736;9.332;2023-07-24T14:31:14;22.30;1.00
20650;DHT22;10484;48.736;9.332;2023-07-24T14:33:39;22.20;1.00
20650;DHT22;10484;48.736;9.332;2023-07-24T14:36:05;22.20;1.00
20650;DHT22;10484;48.736;9.332;2023-07-24T14:38:30;22.30;1.00
20650;DHT22;10484;48.736;9.332;2023-07-24T14:40:56;22.30;1.00
20650;DHT22;10484;48.736;9.332;2023-07-24T14:43:22;22.30;1.00
20650;DHT22;10484;48.736;9.332;2023-07-24T14:45:47;22.30;1.00
20650;DHT22;10484;48.736;9.332;2023-07-24T14:48:13;22.40;1.00
20650;DHT22;10484;48.736;9.332;2023-07-24T14:50:40;22.40;1.00
20650;DHT22;10484;48.736;9.332;2023-07-24T14:53:05;22.40;1.00
20650;DHT22;10484;48.736;9.332;2023-07-24T14:55:31;22.40;1.00
20650;DHT22;10484;48.736;9.332;2023-07-24T14:57:56;22.50;1.00
20650;DHT22;10484;48.736;9.332;2023-07-24T15:00:22;22.50;1.00
20650;DHT22;10484;48.736;9.332;2023-07-24T15:02:47;22.50;1.00
20650;DHT22;10484;48.736;9.332;2023-07-24T15:05:13;22.50;1.00
20650;DHT22;10484;48.736;9.332;2023-07-24T15:07:39;22.60;1.00
20650;DHT22;10484;48.736;9.332;2023-07-24T15:10:04;22.60;1.00
20650;DHT22;10484;48.736;9.332;2023-07-24T15:12:30;22.50;1.00
20650;DHT22;10484;48.736;9.332;2023-07-24T15:14:56;22.50;1.00
20650;DHT22;10484;48.736;9.332;2023-07-24T15:17:21;22.50;1.00
20650;DHT22;10484;48.736;9.332;2023-07-24T15:19:47;22.50;1.00
20650;DHT22;10484;48.736;9.332;2023-07-24T15:22:13;22.50;1.00
20650;DHT22;10484;48.736;9.332;2023-07-24T15:24:40;22.50;1.00
20650;DHT22;10484;48.736;9.332;2023-07-24T15:27:06;22.50;1.00
20650;DHT22;10484;48.736;9.332;2023-07-24T15:29:37;22.50;1.00
20650;DHT22;10484;48.736;9.332;2023-07-24T15:32:04;22.40;1.00
20650;DHT22;10484;48.736;9.332;2023-07-24T15:34:30;22.40;1.00
20650;DHT22;10484;48.736;9.332;2023-07-24T15:36:55;22.40;1.00
20650;DHT22;10484;48.736;9.332;2023-07-24T15:39:21;22.40;1.00
20650;DHT22;10484;48.736;9.332;2023-07-24T15:41:46;22.40;1.00
20650;DHT22;10484;48.736;9.332;2023-07-24T15:44:12;22.30;1.00
20650;DHT22;10484;48.736;9.332;2023-07-24T15:46:37;22.30;1.00